createdAt,value
2019-04-10T00:02:57.716Z,8.60
2019-04-10T00:07:50.424Z,8.80
2019-04-10T00:12:44.098Z,9.60
2019-04-10T00:17:37.442Z,9.00
2019-04-10T00:22:29.017Z,8.40
2019-04-10T00:27:22.727Z,9.00
2019-04-10T00:32:14.652Z,8.80
2019-04-10T00:37:21.754Z,8.00
2019-04-10T00:42:19.345Z,8.50
2019-04-10T00:47:11.489Z,10.70
2019-04-10T00:52:04.330Z,8.00
2019-04-10T00:56:57.417Z,9.00
2019-04-10T01:01:49.724Z,8.90
2019-04-10T01:06:42.675Z,7.60
2019-04-10T01:11:35.462Z,9.00
2019-04-10T01:16:27.633Z,8.60
2019-04-10T01:21:20.417Z,9.20
2019-04-10T01:26:13.179Z,8.20
2019-04-10T01:31:07.161Z,9.30
2019-04-10T01:35:58.943Z,8.10
2019-04-10T01:40:51.596Z,7.40
2019-04-10T01:45:44.439Z,8.00
2019-04-10T01:50:37.209Z,8.40
2019-04-10T01:55:33.070Z,7.60
2019-04-10T02:00:26.192Z,8.50
2019-04-10T02:05:19.254Z,8.40
2019-04-10T02:10:12.522Z,6.60
2019-04-10T02:15:05.302Z,7.70
2019-04-10T02:20:03.438Z,6.40
2019-04-10T02:24:56.051Z,6.80
2019-04-10T02:29:48.688Z,7.20
2019-04-10T02:34:43.602Z,8.10
2019-04-10T02:39:48.254Z,7.30
2019-04-10T02:44:54.049Z,8.00
2019-04-10T02:49:46.853Z,7.40
2019-04-10T02:54:41.704Z,6.70
2019-04-10T02:59:37.314Z,7.20
2019-04-10T03:04:32.942Z,7.30
2019-04-10T03:09:49.075Z,7.10
2019-04-10T03:14:45.792Z,7.60
2019-04-10T03:19:43.449Z,8.00
2019-04-10T03:24:36.345Z,8.60
2019-04-10T03:29:30.010Z,7.60
2019-04-10T03:34:25.467Z,7.70
2019-04-10T03:39:29.846Z,7.60
2019-04-10T03:44:25.586Z,8.50
2019-04-10T03:49:18.312Z,8.20
2019-04-10T03:54:11.595Z,7.30
2019-04-10T03:59:06.179Z,9.40
2019-04-10T04:03:59.754Z,7.80
2019-04-10T04:09:05.532Z,7.50
2019-04-10T04:14:02.026Z,8.00
2019-04-10T04:18:54.408Z,8.40
2019-04-10T04:23:47.190Z,7.60
2019-04-10T04:28:39.706Z,7.90
2019-04-10T04:33:32.385Z,8.00
2019-04-10T04:38:25.982Z,7.80
2019-04-10T04:43:19.170Z,7.50
2019-04-10T04:48:13.129Z,8.20
2019-04-10T04:53:07.106Z,9.20
2019-04-10T04:58:00.282Z,7.20
2019-04-10T05:02:53.659Z,7.00
2019-04-10T05:07:59.063Z,6.00
2019-04-10T05:12:55.083Z,6.10
2019-04-10T05:17:47.526Z,6.30
2019-04-10T05:22:40.066Z,6.50
2019-04-10T05:27:33.509Z,6.90
2019-04-10T05:32:25.973Z,6.90
2019-04-10T05:37:19.025Z,5.90
2019-04-10T05:42:12.661Z,6.10
2019-04-10T05:47:05.819Z,6.90
2019-04-10T05:51:58.241Z,6.10
2019-04-10T05:56:50.843Z,7.50
2019-04-10T06:01:45.665Z,7.90
2019-04-10T06:06:38.771Z,7.90
2019-04-10T06:11:31.554Z,6.80
2019-04-10T06:16:26.129Z,6.10
2019-04-10T06:21:19.309Z,6.30
2019-04-10T06:26:16.878Z,6.40
2019-04-10T06:31:09.695Z,6.50
2019-04-10T06:36:02.757Z,7.50
2019-04-10T06:40:55.436Z,6.20
2019-04-10T06:45:48.689Z,6.00
2019-04-10T06:50:41.764Z,6.20
2019-04-10T06:55:38.441Z,6.20
2019-04-10T07:00:31.293Z,7.00
2019-04-10T07:05:36.461Z,5.90
2019-04-10T07:10:47.847Z,6.00
2019-04-10T07:15:47.422Z,7.20
2019-04-10T07:20:40.486Z,6.40
2019-04-10T07:25:35.410Z,5.10
2019-04-10T07:30:29.750Z,5.00
2019-04-10T07:35:24.150Z,6.70
2019-04-10T07:40:23.460Z,7.30
2019-04-10T07:45:16.326Z,6.00
2019-04-10T07:50:10.273Z,5.80
2019-04-10T07:55:04.379Z,5.30
2019-04-10T07:59:58.503Z,5.70
2019-04-10T08:04:52.112Z,5.00
2019-04-10T08:09:46.314Z,6.50
2019-04-10T08:14:38.498Z,6.60
2019-04-10T08:19:32.790Z,5.80
2019-04-10T08:24:27.793Z,6.90
2019-04-10T08:29:19.845Z,5.80
2019-04-10T08:34:12.723Z,6.30
2019-04-10T08:39:05.103Z,6.00
2019-04-10T08:43:59.342Z,7.00
2019-04-10T08:48:52.329Z,6.80
2019-04-10T08:53:46.597Z,8.10
2019-04-10T08:58:39.595Z,7.80
2019-04-10T09:03:33.413Z,7.30
2019-04-10T09:08:27.083Z,8.70
2019-04-10T09:13:20.582Z,6.90
2019-04-10T09:18:15.160Z,8.30
2019-04-10T09:23:22.484Z,8.00
2019-04-10T09:28:22.673Z,7.40
2019-04-10T09:33:24.858Z,8.00
2019-04-10T09:38:21.421Z,8.70
2019-04-10T09:43:15.699Z,8.00
2019-04-10T09:48:08.951Z,8.40
2019-04-10T09:53:02.547Z,8.60
2019-04-10T09:57:55.919Z,9.70
2019-04-10T10:02:49.410Z,8.20
2019-04-10T10:07:43.443Z,9.10
2019-04-10T10:12:36.886Z,8.40
2019-04-10T10:17:31.276Z,9.30
2019-04-10T10:22:25.701Z,7.60
2019-04-10T10:27:20.436Z,9.10
2019-04-10T10:32:15.436Z,9.40
2019-04-10T10:37:10.388Z,9.10
2019-04-10T10:42:03.721Z,9.10
2019-04-10T10:46:58.374Z,8.60
2019-04-10T10:51:53.707Z,9.10
2019-04-10T10:56:47.082Z,8.20
2019-04-10T11:01:40.442Z,7.20
2019-04-10T11:06:33.629Z,9.50
2019-04-10T11:11:39.077Z,9.10
2019-04-10T11:16:33.436Z,9.20
2019-04-10T11:21:25.237Z,8.00
2019-04-10T11:26:24.144Z,9.50
2019-04-10T11:31:20.972Z,8.70
2019-04-10T11:36:15.629Z,10.00
2019-04-10T11:41:10.193Z,9.90
2019-04-10T11:46:04.614Z,9.10
2019-04-10T11:51:03.169Z,9.80
2019-04-10T11:56:04.384Z,10.10
2019-04-10T12:01:08.435Z,9.60
2019-04-10T12:06:04.165Z,9.80
2019-04-10T12:15:53.561Z,8.70
2019-04-10T12:20:45.806Z,8.30
2019-04-10T12:25:38.769Z,11.00
2019-04-10T12:30:31.601Z,9.50
2019-04-10T12:35:25.064Z,10.40
2019-04-10T12:40:17.741Z,9.40
2019-04-10T12:45:11.855Z,10.70
2019-04-10T12:50:06.174Z,10.50
2019-04-10T12:55:00.017Z,10.90
2019-04-10T13:00:00.998Z,9.30
2019-04-10T13:04:55.194Z,8.70
2019-04-10T13:09:48.992Z,7.60
2019-04-10T13:14:43.072Z,7.40
2019-04-10T13:19:36.155Z,7.50
2019-04-10T13:24:29.874Z,8.50
2019-04-10T13:29:22.945Z,8.30
2019-04-10T13:34:15.750Z,7.70
2019-04-10T13:39:11.102Z,8.90
2019-04-10T13:44:08.595Z,8.80
2019-04-10T13:49:02.397Z,8.30
2019-04-10T13:53:57.066Z,7.70
2019-04-10T13:58:50.807Z,7.80
2019-04-10T14:03:45.499Z,8.70
2019-04-10T14:09:02.976Z,6.90
2019-04-10T14:13:52.341Z,6.90
2019-04-10T14:18:46.435Z,7.90
2019-04-10T14:23:39.978Z,7.90
2019-04-10T14:28:33.242Z,7.90
2019-04-10T14:33:26.671Z,6.70
2019-04-10T14:38:19.652Z,8.20
2019-04-10T14:43:15.118Z,7.90
2019-04-10T14:48:08.899Z,8.40
2019-04-10T14:53:01.769Z,6.50
2019-04-10T14:57:55.312Z,6.30
2019-04-10T15:02:48.367Z,6.60
2019-04-10T15:07:43.298Z,7.70
2019-04-10T15:12:35.357Z,7.10
2019-04-10T15:17:28.469Z,7.60
2019-04-10T15:22:20.647Z,6.50
2019-04-10T15:27:13.507Z,6.00
2019-04-10T15:32:06.326Z,6.40
2019-04-10T15:36:58.992Z,6.80
2019-04-10T15:41:52.286Z,5.60
2019-04-10T15:46:43.995Z,7.20
2019-04-10T15:51:36.925Z,6.70
2019-04-10T15:56:30.298Z,6.30
2019-04-10T16:01:22.098Z,6.20
2019-04-10T16:06:18.335Z,5.70
2019-04-10T16:11:10.291Z,7.30
2019-04-10T16:16:03.515Z,6.90
2019-04-10T16:20:55.845Z,7.30
2019-04-10T16:25:47.822Z,6.50
2019-04-10T16:30:41.462Z,5.60
2019-04-10T16:35:37.146Z,5.30
2019-04-10T16:40:30.378Z,5.70
2019-04-10T16:45:25.078Z,7.80
2019-04-10T16:50:17.961Z,5.70
2019-04-10T16:55:10.816Z,5.70
2019-04-10T17:00:03.389Z,6.30
2019-04-10T17:04:56.999Z,6.60
2019-04-10T17:09:51.989Z,7.20
2019-04-10T17:14:45.682Z,5.50
2019-04-10T17:19:48.685Z,6.50
2019-04-10T17:24:47.847Z,5.60
2019-04-10T17:29:41.520Z,5.80
2019-04-10T17:34:34.701Z,6.80
2019-04-10T17:39:27.599Z,5.50
2019-04-10T17:44:19.768Z,5.50
2019-04-10T17:49:14.909Z,5.00
2019-04-10T17:54:07.646Z,5.90
2019-04-10T17:59:00.733Z,5.50
2019-04-10T18:04:01.450Z,5.80
2019-04-10T18:08:54.674Z,5.50
2019-04-10T18:13:47.549Z,5.10
2019-04-10T18:18:42.537Z,5.40
2019-04-10T18:23:38.206Z,5.30
2019-04-10T18:28:34.966Z,5.00
2019-04-10T18:33:29.106Z,4.70
2019-04-10T18:38:22.058Z,5.20
2019-04-10T18:43:16.488Z,4.50
2019-04-10T18:48:10.817Z,4.40
2019-04-10T18:53:04.122Z,5.20
2019-04-10T18:57:56.910Z,5.00
2019-04-10T19:02:50.813Z,5.20
2019-04-10T19:07:43.525Z,4.50
2019-04-10T19:12:35.586Z,4.80
2019-04-10T19:17:29.446Z,4.50
2019-04-10T19:22:24.773Z,4.60
2019-04-10T19:27:18.065Z,4.10
2019-04-10T19:32:10.723Z,4.60
2019-04-10T19:37:04.532Z,3.70
2019-04-10T19:41:58.144Z,4.00
2019-04-10T19:46:50.726Z,3.90
2019-04-10T19:51:43.153Z,4.10
2019-04-10T19:56:35.338Z,4.40
2019-04-10T20:01:31.593Z,4.50
2019-04-10T20:06:25.609Z,4.10
2019-04-10T20:11:31.214Z,4.20
2019-04-10T20:16:28.000Z,3.80
2019-04-10T20:21:20.077Z,4.10
2019-04-10T20:26:13.028Z,4.90
2019-04-10T20:31:06.858Z,4.40
2019-04-10T20:36:00.252Z,3.90
2019-04-10T20:40:52.388Z,3.70
2019-04-10T20:45:45.909Z,5.60
2019-04-10T20:50:40.112Z,5.00
2019-04-10T20:55:33.978Z,4.90
2019-04-10T21:00:26.903Z,4.50
2019-04-10T21:05:19.734Z,4.30
2019-04-10T21:10:13.236Z,4.40
2019-04-10T21:15:06.038Z,3.60
2019-04-10T21:19:58.403Z,4.10
2019-04-10T21:24:52.532Z,4.90
2019-04-10T21:29:46.905Z,4.50
2019-04-10T21:34:39.617Z,4.00
2019-04-10T21:39:32.217Z,4.30
2019-04-10T21:44:25.143Z,4.30
2019-04-10T21:49:18.119Z,4.10
2019-04-10T21:54:12.346Z,3.30
2019-04-10T21:59:05.916Z,4.00
2019-04-10T22:03:58.777Z,2.90
2019-04-10T22:08:52.401Z,3.60
2019-04-10T22:13:44.878Z,3.50
2019-04-10T22:18:39.324Z,3.80
2019-04-10T22:23:32.603Z,3.70
2019-04-10T22:28:25.792Z,4.10
2019-04-10T22:33:18.526Z,4.10
2019-04-10T22:38:11.599Z,4.70
2019-04-10T22:43:03.985Z,4.40
2019-04-10T22:47:58.816Z,3.70
2019-04-10T22:52:51.225Z,3.90
2019-04-10T22:57:44.649Z,4.00
2019-04-10T23:02:38.065Z,3.80
2019-04-10T23:07:30.633Z,4.60
2019-04-10T23:12:22.759Z,4.50
2019-04-10T23:17:15.309Z,4.50
2019-04-10T23:22:07.884Z,3.40
2019-04-10T23:27:04.208Z,4.40
2019-04-10T23:31:56.631Z,4.20
2019-04-10T23:36:49.305Z,4.70
2019-04-10T23:41:42.522Z,4.20
2019-04-10T23:46:35.062Z,4.50
2019-04-10T23:51:27.810Z,4.40
2019-04-10T23:56:22.258Z,4.90
